createdAt,value
2022-11-05T00:01:15.927Z,15.10
2022-11-05T00:04:03.245Z,15.70
2022-11-05T00:06:50.526Z,12.70
2022-11-05T00:09:32.852Z,13.30
2022-11-05T00:12:32.237Z,13.20
2022-11-05T00:17:47.776Z,13.80
2022-11-05T00:20:16.419Z,14.10
2022-11-05T00:23:03.261Z,13.10
2022-11-05T00:25:31.711Z,16.50
2022-11-05T00:28:02.924Z,14.10
2022-11-05T00:30:31.446Z,13.30
2022-11-05T00:33:05.001Z,13.40
2022-11-05T00:35:33.352Z,12.80
2022-11-05T00:38:01.980Z,12.90
2022-11-05T00:40:30.771Z,15.40
2022-11-05T00:43:17.671Z,13.80
2022-11-05T00:45:46.180Z,16.40
2022-11-05T00:48:33.096Z,15.60
2022-11-05T00:51:01.534Z,13.80
2022-11-05T00:53:30.017Z,16.50
2022-11-05T00:55:58.823Z,13.60
2022-11-05T00:58:29.940Z,14.90
2022-11-05T01:01:00.449Z,13.40
2022-11-05T01:03:33.195Z,12.30
2022-11-05T01:06:17.012Z,14.40
2022-11-05T01:08:46.691Z,15.10
2022-11-05T01:14:10.989Z,16.00
2022-11-05T01:16:40.449Z,15.00
2022-11-05T01:21:39.339Z,13.60
2022-11-05T01:24:08.496Z,13.70
2022-11-05T01:26:36.914Z,14.60
2022-11-05T01:29:05.326Z,12.30
2022-11-05T01:31:33.797Z,15.70
2022-11-05T01:34:02.301Z,14.20
2022-11-05T01:36:30.756Z,16.00
2022-11-05T01:38:59.440Z,16.70
2022-11-05T01:41:28.023Z,12.90
2022-11-05T01:43:59.842Z,12.90
2022-11-05T01:46:44.419Z,14.50
2022-11-05T01:49:17.528Z,12.30
2022-11-05T01:51:46.705Z,15.80
2022-11-05T01:54:23.788Z,16.70
2022-11-05T01:57:02.715Z,16.20
2022-11-05T01:59:46.269Z,14.40
2022-11-05T02:02:14.950Z,16.30
2022-11-05T02:04:54.173Z,16.90
2022-11-05T02:07:25.024Z,13.40
2022-11-05T02:10:11.228Z,14.10
2022-11-05T02:12:43.896Z,16.20
2022-11-05T02:15:15.952Z,15.50
2022-11-05T02:18:15.556Z,14.80
2022-11-05T02:20:57.448Z,13.80
2022-11-05T02:24:01.477Z,13.50
2022-11-05T02:27:00.581Z,13.70
2022-11-05T02:29:56.276Z,13.60
2022-11-05T02:33:03.780Z,13.90
2022-11-05T02:35:41.273Z,16.60
2022-11-05T02:38:17.031Z,16.00
2022-11-05T02:41:25.772Z,16.80
2022-11-05T02:44:10.013Z,17.80
2022-11-05T02:46:44.433Z,14.90
2022-11-05T02:49:52.648Z,17.00
2022-11-05T02:52:43.119Z,17.60
2022-11-05T02:55:26.825Z,14.80
2022-11-05T02:57:55.647Z,15.90
2022-11-05T03:00:52.911Z,12.80
2022-11-05T03:03:33.287Z,14.70
2022-11-05T03:06:22.860Z,14.50
2022-11-05T03:12:21.711Z,14.70
2022-11-05T03:15:08.665Z,14.60
2022-11-05T03:18:14.440Z,12.70
2022-11-05T03:20:48.961Z,15.20
2022-11-05T03:23:34.276Z,15.10
2022-11-05T03:26:33.847Z,14.00
2022-11-05T03:29:15.826Z,14.20
2022-11-05T03:31:47.892Z,14.30
2022-11-05T03:34:20.169Z,18.20
2022-11-05T03:36:53.870Z,15.50
2022-11-05T03:39:33.195Z,14.40
2022-11-05T03:42:05.372Z,16.70
2022-11-05T03:44:39.804Z,16.40
2022-11-05T03:47:15.544Z,14.00
2022-11-05T03:50:20.580Z,13.70
2022-11-05T03:53:03.588Z,14.50
2022-11-05T03:56:07.005Z,14.70
2022-11-05T03:58:36.588Z,13.90
2022-11-05T04:01:05.557Z,16.50
2022-11-05T04:03:36.654Z,14.90
2022-11-05T04:06:26.660Z,17.20
2022-11-05T04:09:14.049Z,16.90
2022-11-05T04:12:01.059Z,16.60
2022-11-05T04:14:31.080Z,13.40
2022-11-05T04:17:09.840Z,17.30
2022-11-05T04:20:03.188Z,14.60
2022-11-05T04:22:53.058Z,17.80
2022-11-05T04:25:22.638Z,16.10
2022-11-05T04:30:20.922Z,14.10
2022-11-05T04:35:44.230Z,15.60
2022-11-05T04:38:16.391Z,18.00
2022-11-05T04:40:47.077Z,16.60
2022-11-05T04:43:19.361Z,18.30
2022-11-05T04:45:48.200Z,18.70
2022-11-05T04:48:16.578Z,15.60
2022-11-05T04:50:45.060Z,19.70
2022-11-05T04:53:14.667Z,17.00
2022-11-05T04:55:43.270Z,18.80
2022-11-05T04:58:11.834Z,14.90
2022-11-05T05:00:40.409Z,14.50
2022-11-05T05:03:09.310Z,17.60
2022-11-05T05:05:38.098Z,15.60
2022-11-05T05:08:06.672Z,17.10
2022-11-05T05:10:35.375Z,17.90
2022-11-05T05:13:03.934Z,14.50
2022-11-05T05:15:32.510Z,16.80
2022-11-05T05:18:00.953Z,19.40
2022-11-05T05:20:48.027Z,16.50
2022-11-05T05:23:16.598Z,14.90
2022-11-05T05:25:45.172Z,14.60
2022-11-05T05:28:13.675Z,16.00
2022-11-05T05:30:42.126Z,13.20
2022-11-05T05:33:10.974Z,15.40
2022-11-05T05:35:39.628Z,17.50
2022-11-05T05:38:08.107Z,18.70
2022-11-05T05:40:36.588Z,16.40
2022-11-05T05:43:05.068Z,14.40
2022-11-05T05:48:04.485Z,17.30
2022-11-05T05:50:32.896Z,20.70
2022-11-05T05:53:09.734Z,17.50
2022-11-05T05:55:38.467Z,18.70
2022-11-05T05:58:08.706Z,17.10
2022-11-05T06:00:39.064Z,20.60
2022-11-05T06:03:07.594Z,17.50
2022-11-05T06:05:36.334Z,15.90
2022-11-05T06:08:05.421Z,17.80
2022-11-05T06:10:34.600Z,17.70
2022-11-05T06:13:03.445Z,17.10
2022-11-05T06:15:35.706Z,16.70
2022-11-05T06:18:04.595Z,20.20
2022-11-05T06:20:32.984Z,19.00
2022-11-05T06:23:01.348Z,19.40
2022-11-05T06:25:30.017Z,19.40
2022-11-05T06:27:58.674Z,18.50
2022-11-05T06:30:27.297Z,22.00
2022-11-05T06:32:55.877Z,21.90
2022-11-05T06:35:24.229Z,17.60
2022-11-05T06:37:52.669Z,18.00
2022-11-05T06:40:21.031Z,17.70
2022-11-05T06:42:53.156Z,18.60
2022-11-05T06:45:22.187Z,19.30
2022-11-05T06:47:57.279Z,16.90
2022-11-05T06:50:27.683Z,20.20
2022-11-05T06:53:01.074Z,18.50
2022-11-05T06:55:31.335Z,21.30
2022-11-05T06:57:59.900Z,18.80
2022-11-05T07:00:28.606Z,17.00
2022-11-05T07:03:05.295Z,20.90
2022-11-05T07:05:36.830Z,19.10
2022-11-05T07:08:05.750Z,18.70
2022-11-05T07:10:34.376Z,20.50
2022-11-05T07:13:07.710Z,19.50
2022-11-05T07:15:37.905Z,18.70
2022-11-05T07:18:09.590Z,21.60
2022-11-05T07:20:38.131Z,28.10
2022-11-05T07:23:11.942Z,27.30
2022-11-05T07:25:42.692Z,21.00
2022-11-05T07:28:11.535Z,23.40
2022-11-05T07:30:40.220Z,25.10
2022-11-05T07:33:09.900Z,19.20
2022-11-05T07:35:38.674Z,20.80
2022-11-05T07:38:07.326Z,21.00
2022-11-05T07:40:35.854Z,22.90
2022-11-05T07:43:04.383Z,22.30
2022-11-05T07:45:33.021Z,17.40
2022-11-05T07:48:03.762Z,20.70
2022-11-05T07:50:36.755Z,17.50
2022-11-05T07:53:13.312Z,19.70
2022-11-05T07:55:42.858Z,19.30
2022-11-05T07:58:11.545Z,22.10
2022-11-05T08:00:40.344Z,21.20
2022-11-05T08:03:14.410Z,19.00
2022-11-05T08:05:47.204Z,19.40
2022-11-05T08:08:19.288Z,18.00
2022-11-05T08:10:48.052Z,19.00
2022-11-05T08:13:17.030Z,17.80
2022-11-05T08:15:45.890Z,19.70
2022-11-05T08:18:17.220Z,20.70
2022-11-05T08:20:47.275Z,20.90
2022-11-05T08:23:16.209Z,18.30
2022-11-05T08:25:44.912Z,18.40
2022-11-05T08:28:14.160Z,19.80
2022-11-05T08:30:43.023Z,18.60
2022-11-05T08:33:13.708Z,19.70
2022-11-05T08:35:42.507Z,20.60
2022-11-05T08:38:14.971Z,19.30
2022-11-05T08:40:46.100Z,17.70
2022-11-05T08:43:15.007Z,18.50
2022-11-05T08:45:43.762Z,19.10
2022-11-05T08:48:15.786Z,18.70
2022-11-05T08:50:46.720Z,17.50
2022-11-05T08:53:16.147Z,19.90
2022-11-05T08:55:47.827Z,17.10
2022-11-05T08:58:17.508Z,19.90
2022-11-05T09:03:16.870Z,20.10
2022-11-05T09:05:45.537Z,14.70
2022-11-05T09:08:17.766Z,20.60
2022-11-05T09:10:48.193Z,17.20
2022-11-05T09:13:19.713Z,17.50
2022-11-05T09:15:50.155Z,16.50
2022-11-05T09:18:20.296Z,21.30
2022-11-05T09:20:49.022Z,15.90
2022-11-05T09:23:17.924Z,17.70
2022-11-05T09:25:46.958Z,19.50
2022-11-05T09:28:19.188Z,14.40
2022-11-05T09:30:51.025Z,19.10
2022-11-05T09:33:23.681Z,16.50
2022-11-05T09:35:53.746Z,15.60
2022-11-05T09:38:22.355Z,15.10
2022-11-05T09:41:29.538Z,20.40
2022-11-05T09:44:03.731Z,19.40
2022-11-05T09:46:55.277Z,15.80
2022-11-05T09:49:42.972Z,14.70
2022-11-05T09:52:18.992Z,15.80
2022-11-05T09:54:48.912Z,13.60
2022-11-05T09:57:47.184Z,16.60
2022-11-05T10:00:17.533Z,16.30
2022-11-05T10:02:55.854Z,14.90
2022-11-05T10:05:28.767Z,15.60
2022-11-05T10:08:12.892Z,13.20
2022-11-05T10:11:10.685Z,15.30
2022-11-05T10:14:00.343Z,12.20
2022-11-05T10:19:24.688Z,15.00
2022-11-05T10:22:18.663Z,13.80
2022-11-05T10:24:50.672Z,13.90
2022-11-05T10:27:39.095Z,10.80
2022-11-05T10:30:24.907Z,12.80
2022-11-05T10:32:57.862Z,12.00
2022-11-05T10:35:30.995Z,13.10
2022-11-05T10:37:59.738Z,13.40
2022-11-05T10:41:06.599Z,12.70
2022-11-05T10:43:47.835Z,11.20
2022-11-05T10:46:36.382Z,14.10
2022-11-05T10:49:10.671Z,14.20
2022-11-05T10:51:39.657Z,14.00
2022-11-05T10:54:21.415Z,13.80
2022-11-05T10:56:50.661Z,13.80
2022-11-05T10:59:28.319Z,15.00
2022-11-05T11:02:26.097Z,14.20
2022-11-05T11:04:58.105Z,13.30
2022-11-05T11:07:27.291Z,12.30
2022-11-05T11:09:55.813Z,12.70
2022-11-05T11:12:31.032Z,12.90
2022-11-05T11:15:24.591Z,12.70
2022-11-05T11:17:55.537Z,11.60
2022-11-05T11:20:32.759Z,11.90
2022-11-05T11:23:01.189Z,14.00
2022-11-05T11:25:42.284Z,13.10
2022-11-05T11:28:29.747Z,14.80
2022-11-05T11:31:07.136Z,11.90
2022-11-05T11:33:38.074Z,12.90
2022-11-05T11:36:11.866Z,12.00
2022-11-05T11:38:41.516Z,15.00
2022-11-05T11:41:28.156Z,12.90
2022-11-05T11:44:07.160Z,11.90
2022-11-05T11:46:36.183Z,12.60
2022-11-05T11:49:07.325Z,14.10
2022-11-05T11:51:49.817Z,13.30
2022-11-05T11:54:28.843Z,12.40
2022-11-05T11:56:57.673Z,11.10
2022-11-05T11:59:53.773Z,12.60
2022-11-05T12:02:33.796Z,11.70
2022-11-05T12:05:18.023Z,15.00
2022-11-05T12:07:58.243Z,14.10
2022-11-05T12:11:03.248Z,12.60
2022-11-05T12:14:20.537Z,12.50
2022-11-05T12:17:14.604Z,12.80
2022-11-05T12:20:16.940Z,13.60
2022-11-05T12:23:45.389Z,13.70
2022-11-05T12:26:47.812Z,12.50
2022-11-05T12:29:59.004Z,13.90
2022-11-05T12:32:42.216Z,14.30
2022-11-05T12:35:57.583Z,13.80
2022-11-05T12:38:41.107Z,13.50
2022-11-05T12:41:26.116Z,12.20
2022-11-05T12:44:07.275Z,11.40
2022-11-05T12:47:08.692Z,11.80
2022-11-05T12:50:05.152Z,10.60
2022-11-05T12:53:15.201Z,9.30
2022-11-05T12:55:49.629Z,9.80
2022-11-05T12:58:35.874Z,10.60
2022-11-05T13:01:19.861Z,10.90
2022-11-05T13:03:57.888Z,9.60
2022-11-05T13:06:54.271Z,13.00
2022-11-05T13:09:34.728Z,12.00
2022-11-05T13:12:13.197Z,8.20
2022-11-05T13:14:52.483Z,9.80
2022-11-05T13:20:17.508Z,10.90
2022-11-05T13:23:14.932Z,10.70
2022-11-05T13:25:53.659Z,8.00
2022-11-05T13:28:33.986Z,13.10
2022-11-05T13:31:06.875Z,8.70
2022-11-05T13:33:40.446Z,11.90
2022-11-05T13:36:39.271Z,8.20
2022-11-05T13:39:25.440Z,7.60
2022-11-05T13:42:16.161Z,11.20
2022-11-05T13:45:25.296Z,8.30
2022-11-05T13:51:14.260Z,8.60
2022-11-05T13:53:51.938Z,8.20
2022-11-05T13:56:36.121Z,10.10
2022-11-05T13:59:33.889Z,8.10
2022-11-05T14:02:22.277Z,8.40
2022-11-05T14:05:01.230Z,7.40
2022-11-05T14:07:38.246Z,6.40
2022-11-05T14:10:41.876Z,9.50
2022-11-05T14:13:34.129Z,8.10
2022-11-05T14:16:17.486Z,7.90
2022-11-05T14:18:53.654Z,7.20
2022-11-05T14:21:28.198Z,7.20
2022-11-05T14:24:19.656Z,7.80
2022-11-05T14:27:03.053Z,7.90
2022-11-05T14:29:44.033Z,8.10
2022-11-05T14:32:21.229Z,7.90
2022-11-05T14:35:04.294Z,7.10
2022-11-05T14:37:39.636Z,6.10
2022-11-05T14:40:36.526Z,7.80
2022-11-05T14:43:14.683Z,6.50
2022-11-05T14:46:01.796Z,9.00
2022-11-05T14:48:59.429Z,7.80
2022-11-05T14:51:38.619Z,6.80
2022-11-05T14:54:30.544Z,7.50
2022-11-05T14:57:02.329Z,9.20
2022-11-05T14:59:35.087Z,8.30
2022-11-05T15:02:03.852Z,7.40
2022-11-05T15:04:37.880Z,8.60
2022-11-05T15:07:06.455Z,8.20
2022-11-05T15:09:46.941Z,7.90
2022-11-05T15:12:44.759Z,6.70
2022-11-05T15:15:21.425Z,6.60
2022-11-05T15:18:11.941Z,7.60
2022-11-05T15:20:47.026Z,8.90
2022-11-05T15:23:24.363Z,7.70
2022-11-05T15:26:05.392Z,7.00
2022-11-05T15:28:47.490Z,5.80
2022-11-05T15:31:16.264Z,6.30
2022-11-05T15:33:47.947Z,5.90
2022-11-05T15:36:29.419Z,5.50
2022-11-05T15:39:27.843Z,7.00
2022-11-05T15:41:47.986Z,6.70
2022-11-05T15:44:48.395Z,6.40
2022-11-05T15:47:36.866Z,7.00
2022-11-05T15:50:15.015Z,7.00
2022-11-05T15:52:55.455Z,5.40
2022-11-05T15:55:27.343Z,5.30
2022-11-05T15:58:07.191Z,6.40
2022-11-05T16:00:36.972Z,6.60
2022-11-05T16:03:19.180Z,5.80
2022-11-05T16:05:48.852Z,5.80
2022-11-05T16:08:21.159Z,7.10
2022-11-05T16:10:59.741Z,5.80
2022-11-05T16:13:33.305Z,6.80
2022-11-05T16:16:06.422Z,5.30
2022-11-05T16:18:40.743Z,7.00
2022-11-05T16:21:17.792Z,7.90
2022-11-05T16:23:56.878Z,5.60
2022-11-05T16:27:03.848Z,6.20
2022-11-05T16:29:50.860Z,4.90
2022-11-05T16:32:31.394Z,5.90
2022-11-05T16:35:04.905Z,6.60
2022-11-05T16:37:49.201Z,5.60
2022-11-05T16:40:24.268Z,4.00
2022-11-05T16:42:54.678Z,6.20
2022-11-05T16:45:25.612Z,6.00
2022-11-05T16:47:54.342Z,7.20
2022-11-05T16:50:30.740Z,5.30
2022-11-05T16:52:59.634Z,5.20
2022-11-05T16:55:30.169Z,5.80
2022-11-05T16:57:59.378Z,6.00
2022-11-05T17:00:28.228Z,6.30
2022-11-05T17:02:57.083Z,8.00
2022-11-05T17:05:30.165Z,6.30
2022-11-05T17:08:00.999Z,6.50
2022-11-05T17:10:30.264Z,5.20
2022-11-05T17:12:59.092Z,5.20
2022-11-05T17:15:37.074Z,4.90
2022-11-05T17:18:06.600Z,5.00
2022-11-05T17:23:16.649Z,6.10
2022-11-05T17:25:49.350Z,7.90
2022-11-05T17:28:19.609Z,5.80
2022-11-05T17:30:52.376Z,5.00
2022-11-05T17:33:23.384Z,6.20
2022-11-05T17:35:53.141Z,7.50
2022-11-05T17:38:24.251Z,5.40
2022-11-05T17:40:53.809Z,5.30
2022-11-05T17:43:22.743Z,7.00
2022-11-05T17:45:53.088Z,5.40
2022-11-05T17:48:21.916Z,6.00
2022-11-05T17:50:51.360Z,6.20
2022-11-05T17:53:20.598Z,10.20
2022-11-05T17:55:49.525Z,5.50
2022-11-05T17:58:18.152Z,7.60
2022-11-05T18:00:48.486Z,4.60
2022-11-05T18:03:17.061Z,5.60
2022-11-05T18:05:45.992Z,5.60
2022-11-05T18:08:14.778Z,5.50
2022-11-05T18:10:43.707Z,5.10
2022-11-05T18:13:12.640Z,6.10
2022-11-05T18:15:41.600Z,6.30
2022-11-05T18:18:10.591Z,4.70
2022-11-05T18:20:39.643Z,6.40
2022-11-05T18:23:08.368Z,8.00
2022-11-05T18:25:37.115Z,5.10
2022-11-05T18:28:06.003Z,3.70
2022-11-05T18:30:34.942Z,7.00
2022-11-05T18:33:03.786Z,6.40
2022-11-05T18:35:32.609Z,5.70
2022-11-05T18:38:01.369Z,4.10
2022-11-05T18:40:30.046Z,6.80
2022-11-05T18:42:58.671Z,5.50
2022-11-05T18:45:29.955Z,6.20
2022-11-05T18:48:03.583Z,5.00
2022-11-05T18:50:32.201Z,5.30
2022-11-05T18:53:00.949Z,6.20
2022-11-05T18:55:29.884Z,6.70
2022-11-05T18:57:58.629Z,6.10
2022-11-05T19:00:28.166Z,6.90
2022-11-05T19:02:57.033Z,5.80
2022-11-05T19:05:29.978Z,6.40
2022-11-05T19:07:59.389Z,5.90
2022-11-05T19:10:28.546Z,8.80
2022-11-05T19:12:57.204Z,6.90
2022-11-05T19:15:25.979Z,6.40
2022-11-05T19:17:54.869Z,5.90
2022-11-05T19:20:23.657Z,8.30
2022-11-05T19:22:52.289Z,6.40
2022-11-05T19:25:20.974Z,5.60
2022-11-05T19:27:49.647Z,6.30
2022-11-05T19:30:18.343Z,5.00
2022-11-05T19:32:47.186Z,6.20
2022-11-05T19:35:16.386Z,6.10
2022-11-05T19:37:45.522Z,6.70
2022-11-05T19:40:14.338Z,6.10
2022-11-05T19:42:43.144Z,5.60
2022-11-05T19:45:38.175Z,6.60
2022-11-05T19:48:00.806Z,5.30
2022-11-05T19:50:29.490Z,10.50
2022-11-05T19:52:58.589Z,9.10
2022-11-05T19:55:28.058Z,7.50
2022-11-05T19:57:56.709Z,7.70
2022-11-05T20:00:25.466Z,8.00
2022-11-05T20:02:54.275Z,7.30
2022-11-05T20:05:23.243Z,7.40
2022-11-05T20:07:53.259Z,8.80
2022-11-05T20:10:22.405Z,9.00
2022-11-05T20:12:51.489Z,6.40
2022-11-05T20:15:20.340Z,8.70
2022-11-05T20:17:53.143Z,7.00
2022-11-05T20:20:22.323Z,8.80
2022-11-05T20:22:53.192Z,7.50
2022-11-05T20:25:21.924Z,7.60
2022-11-05T20:27:50.630Z,7.40
2022-11-05T20:30:20.306Z,8.20
2022-11-05T20:32:53.795Z,9.20
2022-11-05T20:35:24.121Z,9.00
2022-11-05T20:37:54.217Z,7.60
2022-11-05T20:40:23.421Z,10.00
2022-11-05T20:42:52.163Z,11.30
2022-11-05T20:45:20.953Z,10.40
2022-11-05T20:47:49.739Z,6.90
2022-11-05T20:50:18.679Z,11.40
2022-11-05T20:52:47.417Z,11.90
2022-11-05T20:55:16.308Z,7.90
2022-11-05T20:57:45.308Z,9.50
2022-11-05T21:00:15.180Z,11.10
2022-11-05T21:02:44.141Z,9.20
2022-11-05T21:05:13.099Z,7.20
2022-11-05T21:07:41.681Z,9.40
2022-11-05T21:10:10.411Z,7.90
2022-11-05T21:12:39.084Z,10.20
2022-11-05T21:15:09.623Z,7.50
2022-11-05T21:17:38.312Z,9.90
2022-11-05T21:20:07.930Z,8.00
2022-11-05T21:22:36.569Z,10.40
2022-11-05T21:25:05.715Z,8.30
2022-11-05T21:27:34.341Z,8.90
2022-11-05T21:30:04.262Z,7.10
2022-11-05T21:32:33.043Z,7.20
2022-11-05T21:35:01.976Z,7.90
2022-11-05T21:37:30.619Z,10.60
2022-11-05T21:39:59.409Z,8.30
2022-11-05T21:42:30.179Z,8.30
2022-11-05T21:45:00.613Z,9.00
2022-11-05T21:47:29.882Z,7.20
2022-11-05T21:49:58.600Z,7.90
2022-11-05T21:52:45.854Z,9.30
2022-11-05T21:55:34.225Z,10.60
2022-11-05T21:58:30.263Z,9.00
2022-11-05T22:01:01.339Z,8.20
2022-11-05T22:03:30.603Z,10.60
2022-11-05T22:05:59.217Z,8.40
2022-11-05T22:08:27.957Z,8.70
2022-11-05T22:10:56.693Z,9.90
2022-11-05T22:13:25.437Z,20.30
2022-11-05T22:15:57.390Z,10.70
2022-11-05T22:18:26.020Z,8.60
2022-11-05T22:20:54.618Z,8.50
2022-11-05T22:23:23.553Z,7.90
2022-11-05T22:26:00.582Z,8.40
2022-11-05T22:28:29.270Z,9.60
2022-11-05T22:30:58.011Z,9.10
2022-11-05T22:33:27.409Z,8.20
2022-11-05T22:35:56.198Z,7.00
2022-11-05T22:38:24.884Z,7.60
2022-11-05T22:40:53.878Z,7.50
2022-11-05T22:43:22.680Z,5.90
2022-11-05T22:45:51.452Z,9.50
2022-11-05T22:48:20.028Z,7.50
2022-11-05T22:50:48.392Z,7.70
2022-11-05T22:53:16.776Z,5.90
2022-11-05T22:55:45.165Z,8.10
2022-11-05T22:58:13.938Z,6.00
2022-11-05T23:00:42.520Z,5.30
2022-11-05T23:03:11.012Z,7.00
2022-11-05T23:05:39.498Z,7.10
2022-11-05T23:08:26.409Z,6.50
2022-11-05T23:11:13.423Z,6.20
2022-11-05T23:13:41.771Z,6.60
2022-11-05T23:16:28.524Z,5.80
2022-11-05T23:19:16.332Z,6.30
2022-11-05T23:22:03.462Z,9.00
2022-11-05T23:24:31.796Z,6.90
2022-11-05T23:27:00.099Z,6.20
2022-11-05T23:29:28.700Z,5.70
2022-11-05T23:32:15.937Z,9.00
2022-11-05T23:34:44.508Z,6.70
2022-11-05T23:37:31.403Z,7.60
2022-11-05T23:40:00.203Z,5.60
2022-11-05T23:42:47.323Z,8.30
2022-11-05T23:45:34.528Z,7.50
2022-11-05T23:48:18.363Z,6.30
2022-11-05T23:51:10.060Z,5.20
2022-11-05T23:53:41.539Z,6.50
2022-11-05T23:56:14.996Z,7.40
2022-11-05T23:58:43.356Z,8.20
